Time;durP1;ratioP1;P1;durP2;ratioP2;P2;SDS_P1;SDS_P2;PMS_P1;PMS_P2;Temp;Humidity;BMP_temperature;BMP_pressure;BME280_temperature;BME280_humidity;BME280_pressure;Samples;Min_cycle;Max_cycle;Signal;HPM_P1;HPM_P2
2022/05/02 00:01:19;;;;;;;5.33;3.77;;;;;;;8.28;66.21;101250.55;1756253;81;21237;-60
2022/05/02 00:04:26;;;;;;;7.62;4.62;;;;;;;8.18;66.70;101245.53;1756256;81;21280;-60
2022/05/02 00:07:32;;;;;;;8.53;5.10;;;;;;;8.11;66.97;101238.06;1756270;81;21244;-60
2022/05/02 00:10:39;;;;;;;8.45;5.37;;;;;;;8.04;67.46;101239.11;1756279;81;21217;-61
2022/05/02 00:13:44;;;;;;;11.08;4.25;;;;;;;7.99;67.94;101241.38;1756295;81;21190;-61
2022/05/02 00:16:52;;;;;;;7.03;3.80;;;;;;;7.94;68.49;101244.18;1756436;81;21189;-62
2022/05/02 00:19:58;;;;;;;6.92;4.45;;;;;;;7.88;68.77;101245.58;1756183;81;21178;-62
2022/05/02 00:23:07;;;;;;;11.03;4.75;;;;;;;7.83;69.11;101249.73;1739131;81;21197;-62
2022/05/02 00:26:13;;;;;;;8.83;4.85;;;;;;;7.77;69.45;101253.02;1756304;81;21173;-62
2022/05/02 00:29:20;;;;;;;9.60;4.35;;;;;;;7.73;69.76;101252.42;1739080;81;21249;-61
2022/05/02 00:32:26;;;;;;;6.37;4.33;;;;;;;7.72;69.82;101244.38;1774242;79;21197;-62
2022/05/02 00:35:32;;;;;;;7.35;4.58;;;;;;;7.67;69.74;101242.07;1792590;79;21221;-61
2022/05/02 00:38:39;;;;;;;6.83;4.28;;;;;;;7.62;70.21;101242.97;1791515;80;21196;-62
2022/05/02 00:41:45;;;;;;;7.72;5.15;;;;;;;7.57;70.49;101247.47;1792245;80;21193;-63
2022/05/02 00:44:52;;;;;;;9.88;5.40;;;;;;;7.54;70.78;101242.30;1791643;80;21370;-61
2022/05/02 00:48:03;;;;;;;9.48;5.05;;;;;;;7.48;71.02;101237.36;1792656;79;21198;-62
2022/05/02 00:51:08;;;;;;;6.10;4.20;;;;;;;7.46;71.35;101238.02;1792320;80;21194;-62
2022/05/02 00:54:15;;;;;;;8.00;4.80;;;;;;;7.43;71.43;101234.21;1792372;80;21217;-61
2022/05/02 00:57:24;;;;;;;7.80;4.45;;;;;;;7.38;71.42;101233.75;1776087;80;21749;-61
2022/05/02 01:00:30;;;;;;;9.53;5.05;;;;;;;7.30;71.57;101234.92;1792064;80;21237;-62
2022/05/02 01:03:37;;;;;;;9.48;5.25;;;;;;;7.23;71.85;101230.15;1792319;80;21209;-61
2022/05/02 01:10:08;;;;;;;8.60;4.53;;;;;;;7.09;72.46;101227.25;1791692;80;21170;-61
2022/05/02 01:13:16;;;;;;;8.48;4.90;;;;;;;7.02;72.75;101226.07;1792420;80;21202;-62
2022/05/02 01:16:28;;;;;;;7.40;5.10;;;;;;;6.96;72.99;101230.66;1792320;80;21178;-60
2022/05/02 01:19:35;;;;;;;7.80;4.80;;;;;;;6.91;73.15;101236.14;1774722;80;21225;-61
2022/05/02 01:22:41;;;;;;;10.55;4.95;;;;;;;6.84;73.39;101229.00;1792272;80;21186;-61
2022/05/02 01:25:48;;;;;;;7.85;5.10;;;;;;;6.81;73.61;101233.34;1792321;80;21178;-62
2022/05/02 01:28:56;;;;;;;10.60;5.37;;;;;;;6.78;73.86;101244.50;1774558;80;21268;-62
2022/05/02 01:32:02;;;;;;;8.53;5.30;;;;;;;6.73;73.91;101239.94;1792336;80;21210;-61
2022/05/02 01:35:08;;;;;;;9.18;4.72;;;;;;;6.71;74.18;101243.77;1800868;79;21173;-62
2022/05/02 01:38:14;;;;;;;8.18;5.35;;;;;;;6.69;74.35;101244.42;1800687;79;21223;-61
2022/05/02 01:41:19;;;;;;;7.65;4.90;;;;;;;6.64;74.39;101242.09;1800796;79;21220;-61
2022/05/02 01:44:26;;;;;;;11.57;5.22;;;;;;;6.58;74.42;101237.14;1800750;79;21205;-62
2022/05/02 01:47:35;;;;;;;16.50;5.47;;;;;;;6.51;74.53;101240.03;1778442;79;21189;-61
2022/05/02 01:50:42;;;;;;;12.03;5.53;;;;;;;6.44;74.59;101242.05;1800807;79;21178;-61
2022/05/02 01:53:48;;;;;;;8.08;5.20;;;;;;;6.38;74.86;101240.69;1799232;79;21177;-61
2022/05/02 01:56:59;;;;;;;10.15;5.72;;;;;;;6.36;75.31;101238.58;1801023;79;21177;-63
2022/05/02 02:00:02;;;;;;;12.50;5.42;;;;;;;6.34;75.49;101238.36;1792702;80;21154;-60
2022/05/02 02:03:08;;;;;;;19.25;6.00;;;;;;;6.31;75.73;101235.90;1792996;80;21225;-62
2022/05/02 02:06:15;;;;;;;8.48;5.97;;;;;;;6.32;76.12;101241.20;1792966;80;21193;-61
2022/05/02 02:09:22;;;;;;;12.07;5.65;;;;;;;6.32;76.15;101243.92;1793036;80;21217;-61
2022/05/02 02:12:29;;;;;;;11.30;5.95;;;;;;;6.32;76.16;101248.49;1792875;80;21202;-61
2022/05/02 02:15:35;;;;;;;9.85;5.37;;;;;;;6.31;76.06;101253.05;1793005;80;21186;-62
2022/05/02 02:18:41;;;;;;;10.30;5.50;;;;;;;6.25;76.00;101250.84;1776459;80;21245;-61
2022/05/02 02:21:47;;;;;;;9.33;4.97;;;;;;;6.21;75.95;101245.31;1790957;80;21150;-62
2022/05/02 02:24:53;;;;;;;9.33;5.35;;;;;;;6.15;75.86;101240.87;1778676;79;21186;-62
2022/05/02 02:28:01;;;;;;;11.35;5.30;;;;;;;6.08;76.04;101242.75;1803723;79;21208;-62
2022/05/02 02:31:07;;;;;;;11.65;4.70;;;;;;;6.06;76.29;101247.92;1803618;79;21260;-63
2022/05/02 02:34:12;;;;;;;9.80;4.60;;;;;;;6.02;76.25;101244.59;1800516;78;21170;-62
2022/05/02 02:37:20;;;;;;;14.58;5.10;;;;;;;5.97;76.34;101248.69;1792935;79;21166;-63
2022/05/02 02:40:26;;;;;;;14.47;5.45;;;;;;;5.94;76.51;101254.37;1774518;80;21229;-62
2022/05/02 02:43:32;;;;;;;8.18;5.22;;;;;;;5.89;76.49;101252.04;1792379;80;21177;-62
2022/05/02 02:46:37;;;;;;;10.63;4.80;;;;;;;5.89;76.74;101253.87;1792390;80;21536;-62
2022/05/02 02:49:45;;;;;;;10.20;4.95;;;;;;;5.91;77.04;101253.27;1791844;80;21399;-61
2022/05/02 02:52:52;;;;;;;9.18;4.67;;;;;;;5.94;77.16;101253.89;1792102;80;21170;-61
2022/05/02 02:55:59;;;;;;;11.22;4.22;;;;;;;5.97;77.28;101257.72;1792429;80;21174;-62
2022/05/02 02:59:05;;;;;;;10.45;4.92;;;;;;;5.97;77.12;101254.13;1792258;80;21265;-61
2022/05/02 03:02:13;;;;;;;11.63;5.03;;;;;;;5.96;77.26;101251.05;1792342;80;21253;-62
2022/05/02 03:08:44;;;;;;;9.48;5.65;;;;;;;6.00;77.49;101247.07;1765493;80;21208;-62
2022/05/02 03:11:49;;;;;;;7.08;4.75;;;;;;;6.04;77.71;101242.61;1773070;81;21225;-61
2022/05/02 03:14:57;;;;;;;9.83;5.53;;;;;;;6.13;77.76;101248.28;1769636;79;21206;-61
2022/05/02 03:18:02;;;;;;;11.65;5.65;;;;;;;6.20;77.74;101250.36;1794256;79;21272;-61
2022/05/02 03:21:08;;;;;;;14.55;9.00;;;;;;;6.31;77.62;101254.41;1775657;80;21157;-62
2022/05/02 03:24:15;;;;;;;14.18;6.47;;;;;;;6.41;77.52;101248.59;1793714;80;21208;-61
2022/05/02 03:27:22;;;;;;;10.15;5.80;;;;;;;6.51;77.36;101246.83;1789120;80;21178;-61
2022/05/02 03:30:27;;;;;;;18.07;9.80;;;;;;;6.60;77.01;101250.13;1789040;80;21686;-62
2022/05/02 03:33:33;;;;;;;40.83;28.70;;;;;;;6.71;76.63;101250.56;1788530;80;21385;-62
2022/05/02 03:36:39;;;;;;;12.53;8.20;;;;;;;6.80;76.36;101253.38;1787903;78;21217;-63
2022/05/02 03:39:49;;;;;;;10.23;6.12;;;;;;;6.93;76.01;101251.86;1788254;80;21244;-68
2022/05/02 03:42:58;;;;;;;15.60;10.08;;;;;;;7.03;75.63;101247.33;1791589;80;21205;-63
2022/05/02 03:46:10;;;;;;;13.32;6.90;;;;;;;7.14;75.37;101253.58;1788201;80;21656;-62
2022/05/02 03:49:17;;;;;;;8.40;5.47;;;;;;;7.26;74.99;101259.31;1788300;80;21582;-63
2022/05/02 03:52:24;;;;;;;10.35;5.05;;;;;;;7.37;74.64;101259.23;1788871;80;21786;-64
2022/05/02 03:55:33;;;;;;;18.62;6.83;;;;;;;7.49;74.51;101257.31;1793303;79;21719;-63
2022/05/02 03:58:45;;;;;;;11.05;4.75;;;;;;;7.61;74.24;101262.53;1790622;80;21229;-63
2022/05/02 04:01:51;;;;;;;14.35;5.70;;;;;;;7.74;73.73;101261.47;1789530;79;21777;-62
2022/05/02 04:04:59;;;;;;;7.55;4.92;;;;;;;7.85;73.28;101261.38;1789023;80;21206;-63
2022/05/02 04:08:05;;;;;;;12.53;5.28;;;;;;;7.95;72.77;101255.44;1789387;79;21260;-63
2022/05/02 04:11:10;;;;;;;9.38;5.28;;;;;;;8.05;72.39;101255.86;1789490;79;21181;-62
2022/05/02 04:14:16;;;;;;;11.85;5.50;;;;;;;8.14;72.18;101254.14;1792460;80;21253;-62
2022/05/02 04:17:22;;;;;;;13.30;5.12;;;;;;;8.26;71.91;101255.28;1792363;80;21231;-63
2022/05/02 04:20:28;;;;;;;13.68;5.42;;;;;;;8.38;71.79;101258.77;1789025;80;21311;-63
2022/05/02 04:23:37;;;;;;;11.70;5.33;;;;;;;8.50;71.52;101264.48;1789495;79;21706;-62
2022/05/02 04:26:36;;;;;;;14.38;5.75;;;;;;;8.62;71.16;101260.60;1789384;79;21233;-62
2022/05/02 04:29:44;;;;;;;12.65;6.10;;;;;;;8.73;70.86;101264.07;1789370;79;21198;-64
2022/05/02 04:32:50;;;;;;;9.80;6.15;;;;;;;8.87;70.67;101258.67;1790004;79;21201;-62
2022/05/02 04:35:57;;;;;;;10.43;6.40;;;;;;;9.02;70.54;101261.34;1789069;79;21190;-63
2022/05/02 04:39:04;;;;;;;15.13;7.70;;;;;;;9.17;70.46;101263.98;1754571;81;21248;-62
2022/05/02 04:42:09;;;;;;;22.77;6.62;;;;;;;9.31;69.94;101262.68;1716417;81;21204;-63
2022/05/02 04:45:17;;;;;;;16.87;6.40;;;;;;;9.46;69.53;101261.20;1714112;82;21737;-63
2022/05/02 04:48:24;;;;;;;16.12;6.25;;;;;;;9.61;69.11;101269.30;1719640;82;21296;-63
2022/05/02 04:51:29;;;;;;;12.20;5.28;;;;;;;9.74;68.66;101267.95;1724114;83;21240;-60
2022/05/02 04:54:35;;;;;;;12.50;5.65;;;;;;;9.89;68.34;101265.61;1723809;83;21307;-62
2022/05/02 04:57:42;;;;;;;12.30;5.83;;;;;;;10.02;67.88;101260.13;1724629;82;21241;-61
2022/05/02 05:00:50;;;;;;;10.18;5.58;;;;;;;10.15;67.51;101259.31;1724629;82;21210;-60
2022/05/02 05:03:56;;;;;;;13.62;6.37;;;;;;;10.29;67.20;101262.07;1717098;81;21221;-59
2022/05/02 05:07:26;;;;;;;15.00;5.95;;;;;;;10.41;67.08;101258.97;1757053;81;21384;-59
2022/05/02 05:11:14;;;;;;;10.25;5.08;;;;;;;10.56;67.02;101260.64;1695143;84;21277;-60
2022/05/02 05:18:29;;;;;;;11.88;5.50;;;;;;;10.92;66.65;101254.20;1648342;87;21272;-57
2022/05/02 05:22:07;;;;;;;19.17;5.40;;;;;;;11.11;65.69;101255.90;1647133;86;21229;-60
2022/05/02 05:25:57;;;;;;;12.03;5.95;;;;;;;11.25;64.72;101249.34;1673612;84;21770;-57
2022/05/02 05:29:27;;;;;;;11.30;5.58;;;;;;;11.42;64.05;101250.31;1645163;85;21277;-60
2022/05/02 05:33:00;;;;;;;11.22;5.20;;;;;;;11.59;63.30;101248.91;1696753;83;21221;-60
2022/05/02 05:36:17;;;;;;;;;;;;;;;11.76;62.52;101252.66;1691594;83;21205;-58
2022/05/02 05:39:25;;;;;;;;;;;;;;;11.92;62.18;101245.89;1709175;83;20565;-59
2022/05/02 05:42:53;;;;;;;;;;;;;;;12.05;60.91;101252.64;1660737;85;20259;-58
2022/05/02 05:46:18;;;;;;;;;;;;;;;12.19;60.06;101247.56;1622313;87;20226;-59
2022/05/02 05:49:47;;;;;;;;;;;;;;;12.36;59.21;101250.20;1706119;83;20204;-59
2022/05/02 05:53:07;;;;;;;;;;;;;;;12.52;58.66;101253.02;1716973;83;20230;-57
2022/05/02 05:56:23;;;;;;;;;;;;;;;12.68;57.76;101249.44;1710604;83;20226;-60
2022/05/02 05:59:54;;;;;;;;;;;;;;;12.82;57.41;101247.41;1689659;83;20249;-59
2022/05/02 06:03:24;;;;;;;;;;;;;;;12.97;56.77;101258.93;1697723;84;20252;-58
2022/05/02 06:06:32;;;;;;;;;;;;;;;13.15;55.63;101254.18;1697049;84;20221;-60
2022/05/02 06:09:43;;;;;;;;;;;;;;;13.30;54.26;101253.82;1718107;82;20570;-59
2022/05/02 06:12:51;;;;;;;;;;;;;;;13.45;53.67;101251.23;1650380;83;20198;-58
2022/05/02 06:19:29;;;;;;;;;;;;;;;13.78;51.95;101258.41;1726269;82;20215;-58
2022/05/02 06:22:36;;;;;;;;;;;;;;;13.95;50.73;101257.87;1669950;86;20570;-61
2022/05/02 06:25:41;;;;;;;;;;;;;;;14.09;50.14;101254.37;1685441;83;20212;-58
2022/05/02 06:28:48;;;;;;;;;;;;;;;14.25;49.91;101247.47;1674790;84;20618;-58
2022/05/02 06:31:59;;;;;;;;;;;;;;;14.41;48.96;101246.03;1676243;84;20593;-58
2022/05/02 06:35:05;;;;;;;;;;;;;;;14.60;47.84;101251.09;1669448;85;20595;-60
2022/05/02 06:38:35;;;;;;;;;;;;;;;14.76;46.76;101242.73;1669279;86;20244;-61
2022/05/02 06:42:02;;;;;;;;;;;;;;;14.89;45.33;101240.21;1684099;84;20524;-62
2022/05/02 06:45:31;;;;;;;;;;;;;;;15.02;44.79;101243.23;1675546;84;20247;-60
2022/05/02 06:48:46;;;;;;;;;;;;;;;15.15;44.39;101241.23;1676371;84;20856;-61
2022/05/02 06:51:57;;;;;;;;;;;;;;;15.24;43.95;101233.25;1696702;84;20882;-61
2022/05/02 06:55:22;;;;;;;;;;;;;;;15.36;44.32;101239.52;1689907;83;20214;-58
2022/05/02 06:58:34;;;;;;;;;;;;;;;15.44;41.78;101233.95;1685716;84;20214;-61
2022/05/02 07:01:56;;;;;;;;;;;;;;;15.43;41.14;101235.53;1682252;85;20613;-61
2022/05/02 07:05:05;;;;;;;;;;;;;;;15.45;40.75;101232.03;1704135;83;20217;-61
2022/05/02 07:08:18;;;;;;;;;;;;;;;15.48;40.18;101223.37;1694211;84;20205;-62
2022/05/02 07:11:27;;;;;;;;;;;;;;;15.55;39.83;101223.84;1696441;81;20255;-60
2022/05/02 07:15:05;;;;;;;;;;;;;;;15.63;38.68;101225.66;1713660;82;20195;-62
2022/05/02 07:18:45;;;;;;;;;;;;;;;15.69;38.66;101225.77;1634232;86;20260;-62
2022/05/02 07:22:12;;;;;;;;;;;;;;;15.78;38.23;101232.05;1704016;82;20675;-63
2022/05/02 07:25:27;;;;;;;;;;;;;;;15.88;38.41;101233.50;1726825;82;20214;-62
2022/05/02 07:28:49;;;;;;;;;;;;;;;15.88;36.61;101229.36;1732498;81;20218;-62
2022/05/02 07:32:01;;;;;;;;;;;;;;;15.91;35.42;101235.02;1731306;83;20206;-61
2022/05/02 07:35:14;;;;;;;;;;;;;;;15.94;34.83;101235.50;1735201;82;20265;-61
2022/05/02 07:38:21;;;;;;;;;;;;;;;15.99;34.63;101225.26;1732422;81;20246;-61
2022/05/02 07:41:39;;;;;;;;;;;;;;;16.04;34.64;101226.41;1726293;83;20542;-61
2022/05/02 07:44:46;;;;;;;;;;;;;;;16.13;34.30;101222.50;1719556;82;20207;-60
2022/05/02 07:47:52;;;;;;;;;;;;;;;16.21;34.32;101226.55;1723218;81;20214;-62
2022/05/02 07:51:00;;;;;;;;;;;;;;;16.27;34.14;101224.39;1714655;82;20211;-60
2022/05/02 07:54:22;;;;;;;;;;;;;;;16.31;33.87;101228.50;1723361;81;20212;-61
2022/05/02 07:57:31;;;;;;;;;;;;;;;16.41;33.85;101226.27;1715653;82;20222;-61
2022/05/02 08:00:38;;;;;;;;;;;;;;;16.48;33.82;101229.16;1724966;82;20214;-61
2022/05/02 08:03:48;;;;;;;;;;;;;;;16.56;34.19;101231.81;1731140;81;20670;-62
2022/05/02 08:07:14;;;;;;;;;;;;;;;16.65;33.65;101226.48;1730500;83;20214;-60
2022/05/02 08:10:45;;;;;;;;;;;;;;;16.76;33.70;101217.69;1731271;82;20213;-61
2022/05/02 08:14:13;;;;;;;;;;;;;;;16.90;34.85;101207.64;1733668;81;20222;-61
2022/05/02 08:17:40;;;;;;;;;;;;;;;17.08;35.60;101217.19;1733740;83;20691;-61
2022/05/02 08:21:04;;;;;;;;;;;;;;;17.27;34.31;101217.04;1733982;83;20248;-62
2022/05/02 08:27:53;;;;;;;;;;;;;;;17.49;33.96;101211.31;1733319;81;20226;-61
2022/05/02 08:31:04;;;;;;;;;;;;;;;17.66;34.86;101206.35;1734199;82;20187;-62
2022/05/02 08:34:35;;;;;;;;;;;;;;;17.83;34.42;101199.44;1733836;81;20558;-61
2022/05/02 08:38:09;;;;;;;;;;;;;;;17.95;33.14;101197.80;1728176;81;20274;-61
2022/05/02 08:41:40;;;;;;;;;;;;;;;18.06;33.16;101191.67;1729546;83;20287;-61
2022/05/02 08:45:07;;;;;;;;;;;;;;;18.19;32.85;101187.59;1732335;83;20218;-61
2022/05/02 08:48:24;;;;;;;;;;;;;;;18.25;31.60;101185.38;1723573;81;20214;-61
2022/05/02 08:51:52;;;;;;;;;;;;;;;18.29;30.96;101185.31;1707135;83;20547;-61
2022/05/02 08:55:14;;;;;;;;;;;;;;;18.29;30.38;101183.06;1703595;84;20249;-61
2022/05/02 08:58:44;;;;;;;;;;;;;;;18.29;29.77;101179.77;1707354;82;20208;-62
2022/05/02 09:02:09;;;;;;;;;;;;;;;18.23;29.38;101172.28;1733349;83;20238;-60
2022/05/02 09:05:21;;;;;;;;;;;;;;;18.29;29.60;101172.84;1725634;83;20576;-60
2022/05/02 09:08:42;;;;;;;;;;;;;;;18.38;29.52;101169.37;1725844;82;20230;-61
2022/05/02 09:12:04;;;;;;;;;;;;;;;18.45;28.92;101162.81;1729136;80;20203;-61
2022/05/02 09:15:32;;;;;;;;;;;;;;;18.55;28.93;101159.09;1717091;83;20629;-61
2022/05/02 09:18:59;;;;;;;;;;;;;;;18.48;28.75;101151.30;1706841;82;20214;-62
2022/05/02 09:22:06;;;;;;;;;;;;;;;18.35;29.36;101138.73;1682317;85;20617;-61
2022/05/02 09:25:13;;;;;;;;;;;;;;;18.25;29.57;101138.25;1681700;84;20236;-62
2022/05/02 09:28:28;;;;;;;;;;;;;;;18.14;29.29;101140.80;1683870;83;20594;-63
2022/05/02 09:31:42;;;;;;;;;;;;;;;18.07;29.63;101146.82;1686160;84;20570;-61
2022/05/02 09:35:01;;;;;;;;;;;;;;;18.03;29.29;101131.13;1659759;85;20212;-62
2022/05/02 09:38:09;;;;;;;;;;;;;;;18.05;29.21;101130.40;1659124;85;20288;-61
2022/05/02 09:41:16;;;;;;;;;;;;;;;18.31;29.77;101126.36;1659895;85;20220;-64
2022/05/02 09:51:45;;;;;;;;;;;;;;;18.84;30.12;101120.42;1683174;85;20271;-63
2022/05/02 09:59:01;;;;;;;;;;;;;;;18.86;28.92;101117.78;1659802;85;20552;-63
2022/05/02 10:02:13;;;;;;;;;;;;;;;19.10;28.96;101117.16;1685110;83;20369;-63
2022/05/02 10:05:23;;;;;;;;;;;;;;;19.57;30.40;101104.13;1685711;85;20218;-62
2022/05/02 10:08:47;;;;;;;;;;;;;;;20.04;29.79;101099.59;1690052;83;20220;-59
2022/05/02 10:12:15;;;;;;;;;;;;;;;20.48;30.93;101096.84;1682404;83;20577;-62
2022/05/02 10:16:01;;;;;;;;;;;;;;;20.85;29.72;101095.09;1720787;82;20481;-62
2022/05/02 10:19:29;;;;;;;;;;;;;;;21.06;28.41;101088.63;1728057;81;20258;-61
2022/05/02 10:22:58;;;;;;;;;;;;;;;21.44;28.90;101090.74;1729642;82;20262;-52
2022/05/02 10:26:22;;;;;;;;;;;;;;;21.76;27.35;101082.61;1725739;82;20221;-56
2022/05/02 10:29:51;;;;;;;;;;;;;;;21.79;26.59;101082.15;1725743;83;20571;-55
2022/05/02 10:33:01;;;;;;;;;;;;;;;21.83;25.92;101083.94;1722054;83;20210;-54
2022/05/02 10:36:07;;;;;;;;;;;;;;;21.84;25.44;101072.55;1725976;83;20206;-55
2022/05/02 10:39:28;;;;;;;;;;;;;;;22.03;25.47;101072.86;1723872;83;20464;-55
2022/05/02 10:42:33;;;;;;;;;;;;;;;22.26;26.42;101061.50;1724984;83;20217;-54
2022/05/02 10:45:47;;;;;;;;;;;;;;;22.21;26.74;101067.23;1729211;82;20229;-55
2022/05/02 10:48:58;;;;;;;;;;;;;;;22.10;25.68;101062.45;1726862;82;20242;-55
2022/05/02 10:52:30;;;;;;;;;;;;;;;22.02;26.57;101065.55;1732392;83;20249;-56
2022/05/02 10:55:36;;;;;;;;;;;;;;;21.87;26.16;101055.89;1722638;83;20270;-55
2022/05/02 10:58:41;;;;;;;;;;;;;;;21.64;25.90;101055.18;1733585;81;20209;-54
2022/05/02 11:02:05;;;;;;;;;;;;;;;21.50;25.68;101054.16;1732137;82;20262;-58
2022/05/02 11:05:31;;;;;;;;;;;;;;;21.26;27.14;101050.86;1672879;83;20249;-55
2022/05/02 11:08:53;;;;;;;;;;;;;;;21.13;27.05;101049.59;1724378;82;20202;-54
2022/05/02 11:11:58;;;;;;;;;;;;;;;21.12;27.19;101052.91;1728784;83;20582;-55
2022/05/02 11:15:10;;;;;;;;;;;;;;;21.14;27.36;101046.58;1732664;82;20222;-56
2022/05/02 11:22:32;;;;;;;;;;;;;;;21.05;27.35;101040.99;1733150;83;20214;-54
2022/05/02 11:25:51;;;;;;;;;;;;;;;20.94;26.62;101036.13;1730720;83;20414;-54
2022/05/02 11:29:00;;;;;;;;;;;;;;;20.85;25.98;101033.86;1730982;81;20611;-54
2022/05/02 11:32:11;;;;;;;;;;;;;;;20.76;25.82;101029.10;1715510;82;20254;-53
2022/05/02 11:35:26;;;;;;;;;;;;;;;20.70;26.15;101020.27;1731390;83;20206;-54
2022/05/02 11:38:54;;;;;;;;;;;;;;;20.82;25.72;101023.19;1723744;82;20199;-55
2022/05/02 11:41:59;;;;;;;;;;;;;;;21.23;26.91;101017.34;1726845;83;20251;-54
2022/05/02 11:45:21;;;;;;;;;;;;;;;21.76;26.67;101010.14;1726755;83;20246;-56
2022/05/02 11:48:35;;;;;;;;;;;;;;;22.12;25.63;101001.71;1723021;83;20220;-54
2022/05/02 11:51:58;;;;;;;;;;;;;;;22.34;25.63;100996.48;1679252;84;20217;-55
2022/05/02 11:55:05;;;;;;;;;;;;;;;22.56;26.37;100994.02;1713999;83;20220;-54
2022/05/02 11:58:34;;;;;;;;;;;;;;;22.84;25.99;100997.83;1669746;86;20230;-56
2022/05/02 12:01:41;;;;;;;;;;;;;;;23.01;24.85;100995.16;1705536;84;20286;-54
2022/05/02 12:04:48;;;;;;;;;;;;;;;23.19;25.74;100986.13;1707261;82;20224;-54
2022/05/02 12:08:07;;;;;;;;;;;;;;;23.47;25.00;100986.25;1662129;85;20579;-55
2022/05/02 12:11:14;;;;;;;;;;;;;;;23.72;24.31;100980.92;1724314;83;20222;-54
2022/05/02 12:14:27;;;;;;;;;;;;;;;23.87;23.43;100975.09;1725927;82;20227;-56
2022/05/02 12:17:32;;;;;;;;;;;;;;;23.96;22.78;100978.36;1723097;82;20213;-59
2022/05/02 12:20:46;;;;;;;;;;;;;;;24.07;23.24;100972.72;1685196;84;20264;-59
2022/05/02 12:23:52;;;;;;;;;;;;;;;24.06;23.15;100973.84;1650447;86;20218;-58
2022/05/02 12:26:56;;;;;;;;;;;;;;;23.89;23.30;100974.30;1673103;85;20571;-59
2022/05/02 12:30:06;;;;;;;;;;;;;;;23.77;23.20;100968.45;1667655;86;20247;-59
2022/05/02 12:33:12;;;;;;;;;;;;;;;23.61;23.30;100965.31;1667937;85;20456;-58
2022/05/02 12:36:24;;;;;;;;;;;;;;;23.42;22.76;100970.75;1669897;85;20598;-59
2022/05/02 12:39:40;;;;;;;;;;;;;;;23.36;22.73;100970.34;1664783;86;20595;-59
2022/05/02 12:42:53;;;;;;;;;;;;;;;23.36;22.40;100964.76;1666825;85;20563;-59
2022/05/02 12:45:55;;;;;;;;;;;;;;;23.35;22.26;100969.20;1672714;85;20290;-58
2022/05/02 12:49:04;;;;;;;;;;;;;;;23.29;22.30;100962.63;1645046;86;20606;-57
2022/05/02 12:52:10;;;;;;;;;;;;;;;23.34;22.32;100963.31;1668878;86;20235;-59
2022/05/02 12:55:16;;;;;;;;;;;;;;;23.53;22.46;100960.67;1656679;85;20817;-61
2022/05/02 13:05:18;;;;;;;;;;;;;;;23.92;23.27;100950.02;1657969;85;20211;-57
2022/05/02 13:08:29;;;;;;;;;;;;;;;23.95;22.69;100939.73;1668850;84;20254;-58
2022/05/02 13:11:39;;;;;;;;;;;;;;;24.10;21.71;100945.64;1670774;85;20278;-57
2022/05/02 13:14:43;;;;;;;;;;;;;;;24.08;21.71;100929.68;1665458;86;20705;-57
2022/05/02 13:17:49;;;;;;;;;;;;;;;24.09;21.63;100930.50;1676760;84;20219;-57
2022/05/02 13:21:15;;;;;;;;;;;;;;;23.99;21.54;100938.16;1682984;85;20294;-57
2022/05/02 13:24:32;;;;;;;;;;;;;;;24.09;21.97;100929.11;1830074;76;20605;-58
2022/05/02 13:27:40;;;;;;;;;;;;;;;24.10;21.73;100926.62;1775539;79;20519;-57
2022/05/02 13:30:46;;;;;;;;;;;;;;;24.15;21.65;100929.52;1772349;80;20261;-58
2022/05/02 13:34:15;;;;;;;;;;;;;;;24.06;21.57;100925.41;1771965;81;20553;-57
2022/05/02 13:37:24;;;;;;;;;;;;;;;24.05;21.50;100923.19;1773047;81;20205;-57
2022/05/02 13:40:28;;;;;;;;;;;;;;;24.16;21.43;100925.08;1772500;81;20542;-58
2022/05/02 13:43:45;;;;;;;;;;;;;;;24.34;20.91;100923.43;1773042;81;20589;-58
2022/05/02 13:47:00;;;;;;;;;;;;;;;24.32;20.69;100913.61;1771898;80;20218;-59
2022/05/02 13:50:12;;;;;;;;;;;;;;;24.56;20.52;100916.55;1771814;81;20238;-57
2022/05/02 13:53:26;;;;;;;;;;;;;;;25.18;20.04;100913.08;1773740;79;20205;-58
2022/05/02 13:56:43;;;;;;;;;;;;;;;25.56;19.57;100906.06;1754495;80;20677;-58
2022/05/02 14:03:48;;;;;;;;;;;;;;;25.58;20.04;100900.47;1743556;81;20243;-57
2022/05/02 14:10:04;;;;;;;;;;;;;;;25.08;20.26;100899.19;1763851;80;20220;-58
2022/05/02 14:13:13;;;;;;;;;;;;;;;24.89;20.28;100906.77;1736725;81;20216;-60
2022/05/02 14:16:20;;;;;;;;;;;;;;;24.22;20.27;100896.08;1743077;82;20207;-57
2022/05/02 14:19:31;;;;;;;;;;;;;;;23.60;20.71;100899.86;1743905;81;20272;-58
2022/05/02 14:22:42;;;;;;;;;;;;;;;23.11;21.29;100891.52;1743594;81;20215;-59
2022/05/02 14:25:50;;;;;;;;;;;;;;;22.76;21.80;100896.80;1710411;84;20222;-56
2022/05/02 14:28:57;;;;;;;;;;;;;;;22.28;22.21;100892.78;1739099;82;20565;-57
2022/05/02 14:32:12;;;;;;;;;;;;;;;21.96;22.23;100892.22;1706839;82;20203;-58
2022/05/02 14:35:19;;;;;;;;;;;;;;;21.62;23.04;100887.34;1725609;82;20204;-57
2022/05/02 14:38:25;;;;;;;;;;;;;;;21.43;23.89;100887.06;1738926;82;20604;-56
2022/05/02 14:41:33;;;;;;;;;;;;;;;21.28;24.80;100886.59;1703906;84;20224;-62
2022/05/02 14:44:44;;;;;;;;;;;;;;;21.04;23.97;100886.70;1711348;82;20828;-60
2022/05/02 14:48:02;;;;;;;;;;;;;;;20.83;25.57;100875.44;1738612;81;20223;-59
2022/05/02 14:51:29;;;;;;;;;;;;;;;20.71;26.95;100878.66;1717390;82;20629;-60
2022/05/02 14:54:31;;;;;;;;;;;;;;;20.58;27.44;100875.47;1737802;82;20251;-59
2022/05/02 14:57:45;;;;;;;;;;;;;;;20.46;28.48;100870.87;1730827;82;20306;-61
2022/05/02 15:01:05;;;;;;;;;;;;;;;20.34;29.01;100872.16;1737938;82;20564;-61
2022/05/02 15:04:33;;;;;;;;;;;;;;;20.20;30.67;100871.13;1728338;82;20203;-58
2022/05/02 15:07:58;;;;;;;;;;;;;;;20.02;30.51;100867.70;1709067;82;20202;-58
2022/05/02 15:11:22;;;;;;;;;;;;;;;19.92;30.64;100867.87;1709486;84;20591;-58
2022/05/02 15:14:47;;;;;;;;;;;;;;;20.14;30.47;100874.78;1692523;83;20234;-58
2022/05/02 15:18:16;;;;;;;;;;;;;;;20.51;29.25;100859.39;1708813;82;20214;-58
2022/05/02 15:21:25;;;;;;;;;;;;;;;20.96;28.79;100855.84;1673256;83;20214;-59
2022/05/02 15:25:10;;;;;;;;;;;;;;;21.42;28.13;100858.88;1743940;78;20265;-59
2022/05/02 15:38:29;;;;;;;;;;;;;;;22.97;25.95;100840.34;1753560;81;20246;-59
2022/05/02 15:41:59;;;;;;;;;;;;;;;23.41;25.73;100839.65;1764936;80;20758;-60
2022/05/02 15:45:00;;;;;;;;;;;;;;;23.62;25.47;100838.97;1779581;80;20523;-60
2022/05/02 15:48:06;;;;;;;;;;;;;;;23.80;24.43;100837.34;1744753;81;20208;-60
2022/05/02 15:51:29;;;;;;;;;;;;;;;24.13;25.29;100837.98;1737525;82;20212;-60
2022/05/02 15:54:40;;;;;;;;;;;;;;;24.71;25.04;100839.27;1762189;81;20269;-59
2022/05/02 15:57:53;;;;;;;;;;;;;;;25.54;23.43;100838.16;1772278;79;20257;-59
2022/05/02 16:01:12;;;;;;;;;;;;;;;25.76;23.41;100836.16;1771892;81;20225;-59
2022/05/02 16:04:34;;;;;;;;;;;;;;;25.10;23.01;100837.86;1756131;81;20233;-59
2022/05/02 16:11:11;;;;;;;;;;;;;;;25.24;23.97;100845.62;1762349;81;20257;-59
2022/05/02 16:14:21;;;;;;;;;;;;;;;25.76;24.84;100845.44;1759324;81;20202;-59
2022/05/02 16:17:25;;;;;;;;;;;;;;;25.98;24.03;100839.22;1740066;81;20261;-59
2022/05/02 16:20:30;;;;;;;;;;;;;;;25.84;24.29;100843.56;1732514;83;20249;-59
2022/05/02 16:23:36;;;;;;;;;;;;;;;25.51;24.31;100838.14;1717046;82;20588;-60
2022/05/02 16:26:42;;;;;;;;;;;;;;;25.02;25.18;100838.59;1742011;81;20208;-58
2022/05/02 16:29:49;;;;;;;;;;;;;;;24.41;25.60;100842.95;1736878;82;20256;-58
2022/05/02 16:32:58;;;;;;;;;;;;;;;23.68;25.72;100848.28;1771114;80;20554;-59
2022/05/02 16:36:03;;;;;;;;;;;;;;;23.04;25.47;100853.08;1772719;81;20201;-58
2022/05/02 16:39:07;;;;;;;;;;;;;;;22.43;26.31;100846.28;1760129;80;20257;-59
2022/05/02 16:42:14;;;;;;;;;;;;;;;21.85;26.89;100851.21;1717908;82;20645;-60
2022/05/02 16:45:21;;;;;;;;;;;;;;;21.38;27.18;100852.09;1741254;82;20607;-58
2022/05/02 16:48:25;;;;;;;;;;;;;;;20.99;27.37;100860.95;1741998;81;20604;-58
2022/05/02 16:51:33;;;;;;;;;;;;;;;20.60;27.61;100857.15;1741307;82;20200;-59
2022/05/02 16:54:38;;;;;;;;;;;;;;;20.18;28.10;100854.67;1742527;80;20224;-58
2022/05/02 16:57:45;;;;;;;;;;;;;;;19.79;28.44;100857.70;1757077;80;20607;-58